Brightwood, Massachusetts
Current Conditions -  °F | °C
As of 1:53 AM on Thursday 23 Oct 2014 (Local Time) from KBAF Reporting Station
Moderate Rain Moderate Rain  
Wind Chill: 44°   Ceiling: 1200
Heat Index: 49°   Visibility: 6mi
Dew Point: 46°   Wind: 13mph
Humidity: 90%   Direction: 50°NE
Pressure: 29.84"   Gusts: 21mph
Location:  42.1213°N, 72.6057°W
Report Text: KBAF 230553Z 05011G18KT 6SM RA BR OVC012 09/08 A2984 RMK AO2 PRESRR SLP108 P0015 60071 T00940078 10100 20094 53004
Loading
Personal Weather Stations






























Interactive Weather Map
Tropical Storm Tracking
New forecast layout! Learn more

10-Day Weather Forecast

Advertisements
Track Severe Weather on mobile